createdAt,value
2022-07-28T00:03:12.827Z,20.25
2022-07-28T00:13:41.742Z,20.17
2022-07-28T00:24:12.626Z,19.99
2022-07-28T00:34:42.496Z,19.87
2022-07-28T00:45:13.134Z,19.64
2022-07-28T00:56:03.457Z,19.29
2022-07-28T01:06:50.686Z,19.22
2022-07-28T01:17:28.396Z,19.13
2022-07-28T01:28:07.708Z,19.35
2022-07-28T01:38:38.701Z,19.58
2022-07-28T01:49:08.393Z,19.67
2022-07-28T01:59:40.258Z,19.38
2022-07-28T02:10:11.698Z,19.24
2022-07-28T02:20:41.359Z,19.47
2022-07-28T02:31:19.160Z,19.56
2022-07-28T02:41:53.000Z,19.58
2022-07-28T02:52:25.654Z,19.49
2022-07-28T03:02:57.045Z,19.23
2022-07-28T03:13:25.866Z,19.31
2022-07-28T03:23:56.803Z,19.34
2022-07-28T03:34:25.891Z,19.33
2022-07-28T03:44:55.524Z,19.29
2022-07-28T03:55:24.745Z,19.13
2022-07-28T04:05:53.688Z,19.22
2022-07-28T04:16:22.627Z,19.27
2022-07-28T04:26:51.532Z,18.97
2022-07-28T04:37:22.006Z,18.78
2022-07-28T04:47:52.083Z,18.74
2022-07-28T04:58:22.536Z,18.92
2022-07-28T05:08:52.165Z,18.89
2022-07-28T05:19:21.234Z,18.75
2022-07-28T05:29:51.708Z,18.93
2022-07-28T05:40:20.749Z,19.33
2022-07-28T05:50:50.308Z,20.03
2022-07-28T06:01:19.373Z,20.58
2022-07-28T06:11:50.309Z,20.89
2022-07-28T06:22:19.397Z,21.36
2022-07-28T06:32:49.367Z,21.59
2022-07-28T06:43:18.478Z,21.58
2022-07-28T06:53:48.938Z,21.79
2022-07-28T07:04:19.417Z,21.79
2022-07-28T07:14:48.524Z,21.97
2022-07-28T07:25:19.529Z,22.52
2022-07-28T07:35:50.441Z,22.70
2022-07-28T07:46:19.590Z,22.63
2022-07-28T07:56:48.432Z,23.09
2022-07-28T08:07:17.534Z,23.24
2022-07-28T08:17:51.416Z,23.34
2022-07-28T08:28:20.526Z,23.44
2022-07-28T08:38:49.478Z,23.33
2022-07-28T08:49:19.507Z,23.34
2022-07-28T08:59:50.835Z,23.24
2022-07-28T09:10:21.002Z,23.19
2022-07-28T09:20:50.257Z,23.08
2022-07-28T09:31:19.558Z,23.21
2022-07-28T09:41:56.278Z,23.33
2022-07-28T09:52:33.902Z,23.27
2022-07-28T10:03:03.016Z,23.34
2022-07-28T10:13:32.748Z,23.41
2022-07-28T10:24:06.319Z,23.68
2022-07-28T10:34:39.740Z,23.72
2022-07-28T10:45:11.598Z,23.64
2022-07-28T10:55:52.385Z,23.84
2022-07-28T11:06:32.232Z,24.07
2022-07-28T11:17:24.569Z,24.16
2022-07-28T11:28:06.388Z,24.23
2022-07-28T11:38:35.678Z,24.50
2022-07-28T11:49:25.341Z,24.78
2022-07-28T11:59:57.867Z,24.83
2022-07-28T12:10:54.099Z,24.82
2022-07-28T12:21:46.184Z,24.84
2022-07-28T12:32:17.867Z,24.88
2022-07-28T12:42:48.165Z,24.93
2022-07-28T12:53:23.109Z,24.89
2022-07-28T13:03:54.034Z,24.96
2022-07-28T13:14:44.093Z,25.01
2022-07-28T13:25:19.775Z,25.05
2022-07-28T13:35:50.854Z,24.86
2022-07-28T13:46:20.247Z,24.89
2022-07-28T13:56:51.121Z,25.04
2022-07-28T14:07:21.670Z,25.00
2022-07-28T14:17:50.625Z,25.03
2022-07-28T14:28:19.770Z,25.02
2022-07-28T14:38:53.947Z,25.04
2022-07-28T14:49:23.551Z,25.05
2022-07-28T14:59:52.613Z,25.09
2022-07-28T15:10:22.071Z,25.11
2022-07-28T15:20:51.159Z,25.15
2022-07-28T15:31:20.807Z,25.18
2022-07-28T15:41:50.924Z,25.20
2022-07-28T15:52:20.108Z,25.21
2022-07-28T16:02:50.815Z,25.22
2022-07-28T16:13:27.002Z,25.22
2022-07-28T16:24:01.139Z,25.11
2022-07-28T16:34:30.107Z,25.02
2022-07-28T16:44:59.614Z,24.99
2022-07-28T16:55:28.932Z,24.91
2022-07-28T17:05:57.987Z,24.85
2022-07-28T17:16:27.145Z,24.86
2022-07-28T17:37:45.268Z,24.85
2022-07-28T17:48:14.119Z,24.78
2022-07-28T17:58:43.075Z,24.70
2022-07-28T18:09:12.495Z,24.57
2022-07-28T18:19:45.413Z,24.41
2022-07-28T18:30:18.536Z,24.18
2022-07-28T18:40:47.368Z,23.99
2022-07-28T18:51:22.008Z,23.73
2022-07-28T19:01:54.852Z,23.42
2022-07-28T19:12:24.570Z,23.12
2022-07-28T19:22:53.819Z,22.77
2022-07-28T19:33:24.642Z,22.58
2022-07-28T19:43:54.736Z,22.40
2022-07-28T19:54:26.153Z,22.27
2022-07-28T20:04:55.823Z,22.19
2022-07-28T20:15:25.767Z,22.02
2022-07-28T20:25:54.741Z,21.91
2022-07-28T20:36:27.766Z,21.71
2022-07-28T20:47:02.816Z,21.63
2022-07-28T20:57:31.892Z,21.46
2022-07-28T21:08:06.109Z,21.35
2022-07-28T21:18:35.837Z,21.33
2022-07-28T21:39:45.592Z,20.95
2022-07-28T21:50:14.940Z,20.82
2022-07-28T22:00:44.533Z,20.69
2022-07-28T22:11:13.599Z,20.60
2022-07-28T22:21:42.462Z,20.56
2022-07-28T22:32:11.365Z,20.42
2022-07-28T22:42:40.345Z,20.22
2022-07-28T22:53:09.162Z,20.21
2022-07-28T23:03:38.376Z,20.16
2022-07-28T23:14:07.354Z,20.18
2022-07-28T23:24:36.166Z,20.12
2022-07-28T23:35:06.040Z,19.84
2022-07-28T23:45:35.118Z,19.71
2022-07-28T23:56:03.928Z,19.54
